Time,TemperatureF,DewpointF,PressureIn,WindDirection,WindDirectionDegrees,WindSpeedMPH,WindSpeedGustMPH,Humidity,HourlyPrecipIn,Conditions,Clouds,dailyrainin,SolarRadiationWatts/m^2,SoftwareType,DateUTC
2013-04-25 00:00:00,62.9,59.6,29.96,WNW,294,0.0,3.0,89,0.00,,CLR,0.00,0.00,VWS V14.01,2013-04-25 04:00:00,
2013-04-25 00:01:00,62.0,59.3,29.95,SSW,197,0.0,0.0,91,0.00,,OVC055,0.00,0.00,VWS V14.01,2013-04-25 04:01:00,
2013-04-25 00:06:00,61.8,59.2,29.95,SSW,197,0.0,0.0,91,0.00,,OVC055,0.00,0.00,VWS V14.01,2013-04-25 04:06:00,
2013-04-25 00:11:00,61.8,59.5,29.95,SSW,197,0.0,0.0,92,0.00,,OVC055,0.00,0.00,VWS V14.01,2013-04-25 04:11:00,
2013-04-25 00:16:00,61.8,59.5,29.95,SSW,197,0.0,0.0,92,0.00,,OVC055,0.00,0.00,VWS V14.01,2013-04-25 04:16:00,
2013-04-25 00:21:00,61.8,59.8,29.95,SSW,197,0.0,0.0,93,0.00,,OVC055,0.00,0.00,VWS V14.01,2013-04-25 04:21:00,
2013-04-25 00:26:00,62.0,59.7,29.95,SW,223,0.0,2.0,92,0.00,,OVC055,0.00,0.00,VWS V14.01,2013-04-25 04:26:00,
2013-04-25 00:30:00,62.6,59.6,29.94,SSW,197,0.0,2.0,90,0.00,,CLR,0.00,0.00,VWS V14.01,2013-04-25 04:30:00,
2013-04-25 00:31:00,62.0,60.0,29.95,SW,223,0.0,0.0,93,0.00,,OVC055,0.00,0.00,VWS V14.01,2013-04-25 04:31:00,
2013-04-25 00:36:00,61.8,59.5,29.95,SW,223,0.0,0.0,92,0.00,,OVC055,0.00,0.00,VWS V14.01,2013-04-25 04:36:00,
2013-04-25 00:41:00,61.8,59.5,29.95,SW,223,0.0,0.0,92,0.00,,OVC055,0.00,0.00,VWS V14.01,2013-04-25 04:41:00,
2013-04-25 00:46:00,61.8,59.8,29.95,SSW,196,0.0,3.0,93,0.00,,OVC055,0.00,0.00,VWS V14.01,2013-04-25 04:46:00,
2013-04-25 00:51:00,61.6,59.6,29.95,SSW,196,0.0,3.0,93,0.00,,OVC055,0.00,0.00,VWS V14.01,2013-04-25 04:51:00,
2013-04-25 00:56:00,61.8,59.8,29.95,South,171,0.0,3.0,93,0.00,,OVC055,0.00,0.00,VWS V14.01,2013-04-25 04:56:00,
2013-04-25 01:00:00,62.0,59.3,29.95,SSW,197,0.0,1.0,91,0.00,,CLR,0.00,0.00,VWS V14.01,2013-04-25 05:00:00,
2013-04-25 01:01:00,61.8,59.8,29.95,SSE,165,1.0,2.0,93,0.00,,BKN050,0.00,0.00,VWS V14.01,2013-04-25 05:01:00,
2013-04-25 01:06:00,61.8,59.8,29.95,SSE,165,0.0,2.0,93,0.00,,BKN050,0.00,0.00,VWS V14.01,2013-04-25 05:06:00,
2013-04-25 01:11:00,61.8,59.8,29.95,SSE,165,0.0,2.0,93,0.00,,BKN050,0.00,0.00,VWS V14.01,2013-04-25 05:11:00,
2013-04-25 01:16:00,61.8,59.5,29.95,SSE,165,1.0,2.0,92,0.00,,BKN050,0.00,0.00,VWS V14.01,2013-04-25 05:16:00,
2013-04-25 01:21:00,61.8,59.5,29.95,SSE,165,0.0,2.0,92,0.00,,BKN050,0.00,0.00,VWS V14.01,2013-04-25 05:21:00,
2013-04-25 01:26:00,61.8,59.5,29.95,SSE,166,0.0,2.0,92,0.00,,BKN050,0.00,0.00,VWS V14.01,2013-04-25 05:26:00,
2013-04-25 01:30:00,62.0,60.0,29.95,SW,223,0.0,2.0,93,0.00,,CLR,0.00,0.00,VWS V14.01,2013-04-25 05:30:00,
2013-04-25 01:31:00,61.8,59.5,29.94,SSE,166,0.0,0.0,92,0.00,,BKN050,0.00,0.00,VWS V14.01,2013-04-25 05:31:00,
2013-04-25 01:36:00,61.8,59.5,29.94,WNW,286,3.0,4.0,92,0.00,,BKN050,0.00,0.00,VWS V14.01,2013-04-25 05:36:00,
2013-04-25 01:41:00,61.8,59.5,29.94,West,280,0.0,4.0,92,0.00,,BKN050,0.00,0.00,VWS V14.01,2013-04-25 05:41:00,
2013-04-25 01:46:00,61.6,59.3,29.94,West,280,1.0,4.0,92,0.00,,BKN050,0.00,0.00,VWS V14.01,2013-04-25 05:46:00,
2013-04-25 01:51:00,61.6,59.3,29.94,West,275,3.0,4.0,92,0.00,,BKN050,0.00,0.00,VWS V14.01,2013-04-25 05:51:00,
2013-04-25 01:56:00,61.5,59.2,29.94,West,271,0.0,5.0,92,0.00,,BKN050,0.00,0.00,VWS V14.01,2013-04-25 05:56:00,
2013-04-25 02:00:00,61.8,59.8,29.95,South,171,0.0,3.0,93,0.00,,CLR,0.00,0.00,VWS V14.01,2013-04-25 06:00:00,
2013-04-25 02:01:00,61.2,58.6,29.94,West,262,0.0,0.0,91,0.00,,,0.00,0.00,VWS V14.01,2013-04-25 06:01:00,
2013-04-25 02:06:00,60.9,58.0,29.94,West,263,0.0,1.0,90,0.00,,,0.00,0.00,VWS V14.01,2013-04-25 06:06:00,
2013-04-25 02:11:00,60.7,57.8,29.94,West,263,1.0,1.0,90,0.00,,,0.00,0.00,VWS V14.01,2013-04-25 06:11:00,
2013-04-25 02:16:00,60.5,57.6,29.94,WSW,249,2.0,6.0,90,0.00,,,0.00,0.00,VWS V14.01,2013-04-25 06:16:00,
2013-04-25 02:21:00,60.2,57.0,29.94,WSW,249,0.0,6.0,89,0.00,,,0.00,0.00,VWS V14.01,2013-04-25 06:21:00,
2013-04-25 02:26:00,60.1,56.5,29.94,WSW,254,5.0,6.0,88,0.00,,,0.00,0.00,VWS V14.01,2013-04-25 06:26:00,
2013-04-25 02:30:00,61.8,59.5,29.94,SSE,166,0.0,2.0,92,0.00,,CLR,0.00,0.00,VWS V14.01,2013-04-25 06:30:00,
2013-04-25 02:31:00,59.9,56.0,29.94,WSW,248,3.0,3.0,87,0.00,,,0.00,0.00,VWS V14.01,2013-04-25 06:31:00,
2013-04-25 02:36:00,59.8,55.6,29.94,WSW,255,1.0,5.0,86,0.00,,,0.00,0.00,VWS V14.01,2013-04-25 06:36:00,
2013-04-25 02:41:00,59.6,55.4,29.94,WSW,252,2.0,5.0,86,0.00,,,0.00,0.00,VWS V14.01,2013-04-25 06:41:00,
2013-04-25 02:46:00,59.5,55.0,29.94,WSW,257,0.0,5.0,85,0.00,,,0.00,0.00,VWS V14.01,2013-04-25 06:46:00,
2013-04-25 02:51:00,59.5,55.3,29.94,WSW,254,0.0,5.0,86,0.00,,,0.00,0.00,VWS V14.01,2013-04-25 06:51:00,
2013-04-25 02:56:00,59.5,55.3,29.94,WSW,248,3.0,5.0,86,0.00,,,0.00,0.00,VWS V14.01,2013-04-25 06:56:00,
2013-04-25 03:00:00,61.3,58.7,29.94,West,262,0.0,5.0,91,0.00,,CLR,0.00,0.00,VWS V14.01,2013-04-25 07:00:00,
2013-04-25 03:01:00,59.3,54.8,29.94,WSW,250,2.0,5.0,85,0.00,,CLR,0.00,0.00,VWS V14.01,2013-04-25 07:01:00,
2013-04-25 03:06:00,59.3,55.1,29.94,West,261,0.0,5.0,86,0.00,,CLR,0.00,0.00,VWS V14.01,2013-04-25 07:06:00,
2013-04-25 03:11:00,59.2,55.0,29.94,SW,234,0.0,5.0,86,0.00,,CLR,0.00,0.00,VWS V14.01,2013-04-25 07:11:00,
2013-04-25 03:16:00,59.0,55.1,29.95,SW,234,0.0,5.0,87,0.00,,CLR,0.00,0.00,VWS V14.01,2013-04-25 07:16:00,
2013-04-25 03:21:00,59.0,55.1,29.95,WSW,241,0.0,5.0,87,0.00,,CLR,0.00,0.00,VWS V14.01,2013-04-25 07:21:00,
2013-04-25 03:26:00,59.2,55.3,29.95,WSW,241,0.0,5.0,87,0.00,,CLR,0.00,0.00,VWS V14.01,2013-04-25 07:26:00,
2013-04-25 03:30:00,59.9,56.0,29.94,WSW,248,3.0,6.0,87,0.00,,CLR,0.00,0.00,VWS V14.01,2013-04-25 07:30:00,
2013-04-25 03:31:00,59.0,54.8,29.95,WSW,241,0.0,0.0,86,0.00,,CLR,0.00,0.00,VWS V14.01,2013-04-25 07:31:00,
2013-04-25 03:36:00,58.9,55.0,29.95,WSW,241,0.0,0.0,87,0.00,,CLR,0.00,0.00,VWS V14.01,2013-04-25 07:36:00,
2013-04-25 03:41:00,58.9,55.0,29.95,WSW,241,0.0,0.0,87,0.00,,CLR,0.00,0.00,VWS V14.01,2013-04-25 07:41:00,
2013-04-25 03:46:00,58.9,55.0,29.95,WSW,241,0.0,0.0,87,0.00,,CLR,0.00,0.00,VWS V14.01,2013-04-25 07:46:00,
2013-04-25 03:51:00,58.7,54.5,29.95,WSW,241,0.0,0.0,86,0.00,,CLR,0.00,0.00,VWS V14.01,2013-04-25 07:51:00,
2013-04-25 03:56:00,58.7,54.5,29.95,WSW,241,0.0,0.0,86,0.00,,CLR,0.00,0.00,VWS V14.01,2013-04-25 07:56:00,
2013-04-25 04:00:00,59.3,54.8,29.94,WSW,253,1.0,5.0,85,0.00,,CLR,0.00,0.00,VWS V14.01,2013-04-25 08:00:00,
2013-04-25 04:01:00,58.6,54.4,29.95,South,182,0.0,0.0,86,0.00,,BKN070,0.00,0.00,VWS V14.01,2013-04-25 08:01:00,
2013-04-25 04:06:00,58.3,54.5,29.95,South,182,0.0,2.0,87,0.00,,BKN070,0.00,0.00,VWS V14.01,2013-04-25 08:06:00,
2013-04-25 04:11:00,58.1,54.3,29.95,South,182,0.0,2.0,87,0.00,,BKN070,0.00,0.00,VWS V14.01,2013-04-25 08:11:00,
2013-04-25 04:16:00,58.0,54.2,29.96,South,182,0.0,2.0,87,0.00,,BKN070,0.00,0.00,VWS V14.01,2013-04-25 08:16:00,
2013-04-25 04:21:00,57.6,54.1,29.96,South,182,0.0,2.0,88,0.00,,BKN070,0.00,0.00,VWS V14.01,2013-04-25 08:21:00,
2013-04-25 04:26:00,57.3,53.8,29.96,South,182,0.0,2.0,88,0.00,,BKN070,0.00,0.00,VWS V14.01,2013-04-25 08:26:00,
2013-04-25 04:30:00,59.0,54.8,29.95,WSW,241,0.0,5.0,86,0.00,,CLR,0.00,0.00,VWS V14.01,2013-04-25 08:30:00,
2013-04-25 04:31:00,57.2,53.7,29.96,South,182,0.0,0.0,88,0.00,,BKN070,0.00,0.00,VWS V14.01,2013-04-25 08:31:00,
2013-04-25 04:36:00,57.3,54.7,29.96,SW,229,1.0,4.0,91,0.00,,BKN070,0.00,0.00,VWS V14.01,2013-04-25 08:36:00,
2013-04-25 04:41:00,57.2,54.6,29.96,SW,229,0.0,4.0,91,0.00,,BKN070,0.00,0.00,VWS V14.01,2013-04-25 08:41:00,
2013-04-25 04:46:00,56.7,54.1,29.97,SW,229,0.0,4.0,91,0.00,,BKN070,0.00,0.00,VWS V14.01,2013-04-25 08:46:00,
2013-04-25 04:51:00,56.6,54.3,29.97,SW,229,2.0,4.0,92,0.00,,BKN070,0.00,0.00,VWS V14.01,2013-04-25 08:51:00,
2013-04-25 04:56:00,56.9,54.9,29.97,SW,229,0.0,4.0,93,0.00,,BKN070,0.00,0.00,VWS V14.01,2013-04-25 08:56:00,
2013-04-25 05:00:00,58.7,54.5,29.95,South,182,0.0,3.0,86,0.00,,CLR,0.00,0.00,VWS V14.01,2013-04-25 09:00:00,
2013-04-25 05:01:00,56.6,54.3,29.98,SW,229,0.0,0.0,92,0.00,,OVC070,0.00,0.00,VWS V14.01,2013-04-25 09:01:00,
2013-04-25 05:06:00,56.5,54.2,29.98,SW,229,0.0,1.0,92,0.00,,OVC070,0.00,0.00,VWS V14.01,2013-04-25 09:06:00,
2013-04-25 05:11:00,56.5,54.8,29.98,SW,229,0.0,4.0,94,0.00,,OVC070,0.00,0.00,VWS V14.01,2013-04-25 09:11:00,
2013-04-25 05:16:00,56.9,55.2,29.98,West,268,0.0,5.0,94,0.00,,OVC070,0.00,0.00,VWS V14.01,2013-04-25 09:16:00,
2013-04-25 05:21:00,57.5,55.8,29.98,West,267,0.0,5.0,94,0.00,,OVC070,0.00,0.00,VWS V14.01,2013-04-25 09:21:00,
2013-04-25 05:26:00,57.3,55.3,29.98,West,267,0.0,5.0,93,0.00,,OVC070,0.00,0.00,VWS V14.01,2013-04-25 09:26:00,
2013-04-25 05:30:00,57.2,53.7,29.96,South,182,0.0,2.0,88,0.00,,CLR,0.00,0.00,VWS V14.01,2013-04-25 09:30:00,
2013-04-25 05:31:00,57.3,55.3,29.99,West,267,0.0,0.0,93,0.00,,OVC070,0.00,0.00,VWS V14.01,2013-04-25 09:31:00,
2013-04-25 05:36:00,57.8,56.1,29.99,WNW,290,5.0,6.0,94,0.00,,OVC070,0.00,0.00,VWS V14.01,2013-04-25 09:36:00,
2013-04-25 05:41:00,57.8,56.1,29.99,WNW,283,2.0,6.0,94,0.00,,OVC070,0.00,0.00,VWS V14.01,2013-04-25 09:41:00,
2013-04-25 05:46:00,58.0,56.6,30.00,WNW,288,6.0,6.0,95,0.00,,OVC070,0.00,0.00,VWS V14.01,2013-04-25 09:46:00,
2013-04-25 05:51:00,57.6,56.2,30.00,WNW,288,1.0,6.0,95,0.00,,OVC070,0.00,0.00,VWS V14.01,2013-04-25 09:51:00,
2013-04-25 05:56:00,57.3,55.9,30.00,WNW,288,3.0,6.0,95,0.00,,OVC070,0.00,0.00,VWS V14.01,2013-04-25 09:56:00,
2013-04-25 06:00:00,56.6,54.3,29.98,SW,229,0.0,4.0,92,0.00,,CLR,0.00,0.00,VWS V14.01,2013-04-25 10:00:00,
2013-04-25 06:01:00,57.3,55.6,30.00,WNW,288,2.0,3.0,94,0.00,,OVC070,0.00,0.00,VWS V14.01,2013-04-25 10:01:00,
2013-04-25 06:06:00,57.2,54.9,30.00,WNW,290,4.0,6.0,92,0.00,,OVC070,0.00,0.00,VWS V14.01,2013-04-25 10:06:00,
2013-04-25 06:11:00,56.7,54.1,30.00,NW,304,5.0,6.0,91,0.00,,OVC070,0.00,0.00,VWS V14.01,2013-04-25 10:11:00,
2013-04-25 06:16:00,56.5,53.6,30.01,NW,315,5.0,6.0,90,0.00,,OVC070,0.00,0.00,VWS V14.01,2013-04-25 10:16:00,
2013-04-25 06:21:00,56.0,52.2,30.01,NW,314,1.0,6.0,87,0.00,,OVC070,0.00,0.00,VWS V14.01,2013-04-25 10:21:00,
2013-04-25 06:26:00,55.7,51.0,30.01,NW,310,6.0,7.0,84,0.00,,OVC070,0.00,0.00,VWS V14.01,2013-04-25 10:26:00,
2013-04-25 06:30:00,57.3,55.3,29.99,West,267,0.0,5.0,93,0.00,,CLR,0.00,0.00,VWS V14.01,2013-04-25 10:30:00,
2013-04-25 06:31:00,55.7,51.0,30.02,NW,307,4.0,4.0,84,0.00,,OVC070,0.00,0.00,VWS V14.01,2013-04-25 10:31:00,
2013-04-25 06:36:00,55.7,51.3,30.02,NW,316,5.0,7.0,85,0.00,,OVC070,0.00,0.00,VWS V14.01,2013-04-25 10:36:00,
2013-04-25 06:41:00,55.6,50.2,30.02,NNW,331,5.0,8.0,82,0.00,,BKN070,0.00,0.00,VWS V14.01,2013-04-25 10:41:00,
2013-04-25 06:45:00,55.3,49.6,30.03,NNW,338,3.0,8.0,81,0.00,,BKN070,0.00,0.00,VWS V14.01,2013-04-25 10:45:00,
2013-04-25 06:50:00,55.1,49.7,30.03,NW,318,4.0,8.0,82,0.00,,BKN070,0.00,7.00,VWS V14.01,2013-04-25 10:50:00,
2013-04-25 06:55:00,55.1,49.0,30.03,WNW,300,4.0,8.0,80,0.00,,BKN070,0.00,11.00,VWS V14.01,2013-04-25 10:55:00,
2013-04-25 07:00:00,55.0,48.3,30.04,NNW,334,5.0,5.0,78,0.00,,BKN070,0.00,16.00,VWS V14.01,2013-04-25 11:00:00,
2013-04-25 07:05:00,54.8,47.4,30.04,NW,314,3.0,9.0,76,0.00,,OVC012,0.00,30.00,VWS V14.01,2013-04-25 11:05:00,
2013-04-25 07:10:00,54.8,47.0,30.04,NW,309,3.0,9.0,75,0.00,,OVC012,0.00,40.00,VWS V14.01,2013-04-25 11:10:00,
2013-04-25 07:15:00,54.8,47.4,30.05,WNW,298,4.0,9.0,76,0.00,,OVC012,0.00,51.00,VWS V14.01,2013-04-25 11:15:00,
2013-04-25 07:20:00,54.7,47.6,30.05,WNW,291,5.0,9.0,77,0.00,,OVC016,0.00,60.00,VWS V14.01,2013-04-25 11:20:00,
2013-04-25 07:25:00,54.7,48.0,30.05,WNW,302,3.0,9.0,78,0.00,,OVC016,0.00,69.00,VWS V14.01,2013-04-25 11:25:00,
2013-04-25 07:30:00,54.8,48.1,30.06,NNE,14,0.0,0.0,78,0.00,,OVC016,0.00,83.00,VWS V14.01,2013-04-25 11:30:00,
2013-04-25 07:35:00,55.4,49.7,30.06,NE,51,4.0,5.0,81,0.00,,OVC016,0.00,105.00,VWS V14.01,2013-04-25 11:35:00,
2013-04-25 07:40:00,56.0,49.6,30.06,NE,51,6.0,10.0,79,0.00,,OVC016,0.00,137.00,VWS V14.01,2013-04-25 11:40:00,
2013-04-25 07:45:00,56.2,47.7,30.07,North,5,8.0,10.0,73,0.00,,OVC016,0.00,148.00,VWS V14.01,2013-04-25 11:45:00,
2013-04-25 07:50:00,56.6,46.2,30.07,NE,36,9.0,12.0,68,0.00,,OVC016,0.00,93.00,VWS V14.01,2013-04-25 11:50:00,
2013-04-25 07:55:00,57.0,46.6,30.07,NE,36,6.0,12.0,68,0.00,,OVC016,0.00,183.00,VWS V14.01,2013-04-25 11:55:00,
2013-04-25 08:00:00,57.5,47.4,30.07,NNE,12,6.0,12.0,69,0.00,,OVC016,0.00,202.00,VWS V14.01,2013-04-25 12:00:00,
2013-04-25 08:05:00,57.6,45.9,30.07,NNE,24,6.0,10.0,65,0.00,,OVC018,0.00,218.00,VWS V14.01,2013-04-25 12:05:00,
2013-04-25 08:10:00,57.8,46.5,30.07,NE,42,6.0,10.0,66,0.00,,OVC018,0.00,234.00,VWS V14.01,2013-04-25 12:10:00,
2013-04-25 08:15:00,58.0,47.1,30.08,NNE,28,5.0,11.0,67,0.00,,OVC018,0.00,250.00,VWS V14.01,2013-04-25 12:15:00,
2013-04-25 08:20:00,58.3,47.8,30.08,NE,36,3.0,11.0,68,0.00,,OVC018,0.00,265.00,VWS V14.01,2013-04-25 12:20:00,
2013-04-25 08:25:00,58.1,46.4,30.08,North,355,9.0,11.0,65,0.00,,OVC018,0.00,285.00,VWS V14.01,2013-04-25 12:25:00,
2013-04-25 08:30:00,57.8,46.1,30.08,North,5,9.0,11.0,65,0.00,,OVC018,0.00,304.00,VWS V14.01,2013-04-25 12:30:00,
2013-04-25 08:35:00,57.8,46.1,30.08,North,360,6.0,10.0,65,0.00,,OVC018,0.00,318.00,VWS V14.01,2013-04-25 12:35:00,
2013-04-25 08:40:00,58.1,46.8,30.08,NE,36,3.0,10.0,66,0.00,,SCT018,0.00,338.00,VWS V14.01,2013-04-25 12:40:00,
2013-04-25 08:45:00,58.3,47.0,30.08,NE,35,2.0,10.0,66,0.00,,SCT018,0.00,352.00,VWS V14.01,2013-04-25 12:45:00,
2013-04-25 08:50:00,58.4,48.3,30.08,NE,51,4.0,10.0,69,0.00,,SCT018,0.00,367.00,VWS V14.01,2013-04-25 12:50:00,
2013-04-25 08:55:00,58.3,47.8,30.08,North,11,5.0,10.0,68,0.00,,SCT018,0.00,385.00,VWS V14.01,2013-04-25 12:55:00,
2013-04-25 09:00:00,58.3,47.8,30.09,NNW,346,4.0,10.0,68,0.00,,SCT018,0.00,401.00,VWS V14.01,2013-04-25 13:00:00,
2013-04-25 09:05:00,57.8,47.3,30.09,NNE,25,1.0,6.0,68,0.00,,CLR,0.00,417.00,VWS V14.01,2013-04-25 13:05:00,
2013-04-25 09:10:00,58.0,49.0,30.09,NE,40,1.0,6.0,72,0.00,,CLR,0.00,432.00,VWS V14.01,2013-04-25 13:10:00,
2013-04-25 09:15:00,58.1,48.8,30.09,North,355,4.0,7.0,71,0.00,,CLR,0.00,446.00,VWS V14.01,2013-04-25 13:15:00,
2013-04-25 09:20:00,57.8,48.5,30.09,NNW,333,5.0,7.0,71,0.00,,CLR,0.00,468.00,VWS V14.01,2013-04-25 13:20:00,
2013-04-25 09:25:00,57.3,47.6,30.09,North,360,4.0,7.0,70,0.00,,CLR,0.00,482.00,VWS V14.01,2013-04-25 13:25:00,
2013-04-25 09:30:00,57.5,48.2,30.09,NE,34,4.0,7.0,71,0.00,,CLR,0.00,499.00,VWS V14.01,2013-04-25 13:30:00,
2013-04-25 09:35:00,58.3,47.8,30.09,NNE,30,3.0,4.0,68,0.00,,CLR,0.00,517.00,VWS V14.01,2013-04-25 13:35:00,
2013-04-25 09:40:00,58.4,46.7,30.09,North,360,0.0,5.0,65,0.00,,CLR,0.00,529.00,VWS V14.01,2013-04-25 13:40:00,
2013-04-25 09:45:00,58.4,47.1,30.10,NE,55,4.0,5.0,66,0.00,,CLR,0.00,545.00,VWS V14.01,2013-04-25 13:45:00,
2013-04-25 09:50:00,58.4,47.1,30.10,NNE,32,0.0,5.0,66,0.00,,CLR,0.00,561.00,VWS V14.01,2013-04-25 13:50:00,
2013-04-25 09:55:00,58.9,47.2,30.10,ENE,65,2.0,5.0,65,0.00,,CLR,0.00,578.00,VWS V14.01,2013-04-25 13:55:00,
2013-04-25 10:00:00,59.3,48.4,30.10,ENE,69,0.0,5.0,67,0.00,,CLR,0.00,596.00,VWS V14.01,2013-04-25 14:00:00,
2013-04-25 10:05:00,59.8,48.0,30.10,North,360,0.0,1.0,65,0.00,,FEW024,0.00,612.00,VWS V14.01,2013-04-25 14:05:00,
2013-04-25 10:10:00,60.5,47.9,30.10,ENE,74,0.0,1.0,63,0.00,,FEW024,0.00,626.00,VWS V14.01,2013-04-25 14:10:00,
2013-04-25 10:15:00,61.2,48.9,30.10,ENE,74,0.0,1.0,64,0.00,,FEW024,0.00,642.00,VWS V14.01,2013-04-25 14:15:00,
2013-04-25 10:20:00,61.3,48.2,30.10,ENE,61,0.0,1.0,62,0.00,,FEW024,0.00,656.00,VWS V14.01,2013-04-25 14:20:00,
2013-04-25 10:25:00,60.9,48.2,30.10,NNE,19,0.0,1.0,63,0.00,,FEW024,0.00,670.00,VWS V14.01,2013-04-25 14:25:00,
2013-04-25 10:30:00,60.7,48.5,30.10,NNE,20,0.0,1.0,64,0.00,,FEW024,0.00,680.00,VWS V14.01,2013-04-25 14:30:00,
2013-04-25 10:35:00,60.4,48.2,30.10,NNE,13,0.0,2.0,64,0.00,,FEW024,0.00,696.00,VWS V14.01,2013-04-25 14:35:00,
2013-04-25 10:40:00,60.5,48.7,30.10,NE,40,0.0,2.0,65,0.00,,FEW024,0.00,710.00,VWS V14.01,2013-04-25 14:40:00,
2013-04-25 10:45:00,61.2,48.1,30.10,NE,42,0.0,2.0,62,0.00,,FEW024,0.00,722.00,VWS V14.01,2013-04-25 14:45:00,
2013-04-25 10:50:00,61.6,48.5,30.10,NE,44,0.0,2.0,62,0.00,,FEW024,0.00,738.00,VWS V14.01,2013-04-25 14:50:00,
2013-04-25 10:55:00,62.0,46.1,30.10,NE,44,0.0,2.0,56,0.00,,FEW024,0.00,754.00,VWS V14.01,2013-04-25 14:55:00,
2013-04-25 11:00:00,62.3,46.0,30.11,NE,44,0.0,2.0,55,0.00,,FEW024,0.00,765.00,VWS V14.01,2013-04-25 15:00:00,
2013-04-25 11:05:00,62.7,46.3,30.11,NE,44,0.0,1.0,55,0.00,,CLR,0.00,777.00,VWS V14.01,2013-04-25 15:05:00,
2013-04-25 11:10:00,63.2,46.8,30.11,NE,44,0.0,2.0,55,0.00,,CLR,0.00,789.00,VWS V14.01,2013-04-25 15:10:00,
2013-04-25 11:15:00,63.2,46.8,30.11,NE,56,0.0,2.0,55,0.00,,CLR,0.00,800.00,VWS V14.01,2013-04-25 15:15:00,
2013-04-25 11:20:00,62.6,46.7,30.11,ENE,74,0.0,2.0,56,0.00,,CLR,0.00,812.00,VWS V14.01,2013-04-25 15:20:00,
2013-04-25 11:25:00,62.4,47.5,30.11,ENE,74,0.0,2.0,58,0.00,,CLR,0.00,824.00,VWS V14.01,2013-04-25 15:25:00,
2013-04-25 11:30:00,62.7,46.3,30.11,ENE,74,0.0,2.0,55,0.00,,CLR,0.00,831.00,VWS V14.01,2013-04-25 15:30:00,
2013-04-25 11:35:00,63.2,47.3,30.11,ENE,74,0.0,1.0,56,0.00,,CLR,0.00,842.00,VWS V14.01,2013-04-25 15:35:00,
2013-04-25 11:40:00,63.4,47.0,30.11,ENE,78,0.0,1.0,55,0.00,,CLR,0.00,856.00,VWS V14.01,2013-04-25 15:40:00,
2013-04-25 11:45:00,63.4,47.0,30.12,East,80,0.0,1.0,55,0.00,,CLR,0.00,863.00,VWS V14.01,2013-04-25 15:45:00,
2013-04-25 11:50:00,63.5,48.0,30.12,East,86,2.0,2.0,57,0.00,,CLR,0.00,875.00,VWS V14.01,2013-04-25 15:50:00,
2013-04-25 11:55:00,63.7,47.7,30.12,ESE,110,0.0,3.0,56,0.00,,CLR,0.00,884.00,VWS V14.01,2013-04-25 15:55:00,
2013-04-25 12:00:00,64.2,46.7,30.12,ESE,113,0.0,3.0,53,0.00,,CLR,0.00,889.00,VWS V14.01,2013-04-25 16:00:00,
2013-04-25 12:05:00,64.2,46.2,30.12,East,99,0.0,0.0,52,0.00,,CLR,0.00,898.00,VWS V14.01,2013-04-25 16:05:00,
2013-04-25 12:10:00,64.2,47.2,30.12,East,99,0.0,1.0,54,0.00,,CLR,0.00,907.00,VWS V14.01,2013-04-25 16:10:00,
2013-04-25 12:15:00,64.3,46.3,30.11,East,101,1.0,3.0,52,0.00,,CLR,0.00,914.00,VWS V14.01,2013-04-25 16:15:00,
2013-04-25 12:20:00,64.8,46.3,30.11,East,101,0.0,3.0,51,0.00,,CLR,0.00,919.00,VWS V14.01,2013-04-25 16:20:00,
2013-04-25 12:25:00,65.0,47.0,30.11,East,101,0.0,3.0,52,0.00,,CLR,0.00,928.00,VWS V14.01,2013-04-25 16:25:00,
2013-04-25 12:30:00,65.2,46.1,30.11,East,101,0.0,3.0,50,0.00,,CLR,0.00,930.00,VWS V14.01,2013-04-25 16:30:00,
2013-04-25 12:35:00,65.5,45.3,30.11,NNE,23,0.0,3.0,48,0.00,,CLR,0.00,937.00,VWS V14.01,2013-04-25 16:35:00,
2013-04-25 12:40:00,65.3,46.2,30.11,WNW,284,0.0,4.0,50,0.00,,CLR,0.00,940.00,VWS V14.01,2013-04-25 16:40:00,
2013-04-25 12:45:00,64.8,47.3,30.11,West,281,4.0,5.0,53,0.00,,CLR,0.00,940.00,VWS V14.01,2013-04-25 16:45:00,
2013-04-25 12:50:00,64.7,46.2,30.11,WNW,289,2.0,5.0,51,0.00,,CLR,0.00,944.00,VWS V14.01,2013-04-25 16:50:00,
2013-04-25 12:55:00,64.8,46.3,30.11,West,261,0.0,5.0,51,0.00,,CLR,0.00,947.00,VWS V14.01,2013-04-25 16:55:00,
2013-04-25 13:00:00,65.3,46.7,30.10,SE,141,1.0,5.0,51,0.00,,CLR,0.00,953.00,VWS V14.01,2013-04-25 17:00:00,
2013-04-25 13:05:00,66.0,46.3,30.10,South,169,2.0,5.0,49,0.00,,CLR,0.00,956.00,VWS V14.01,2013-04-25 17:05:00,
2013-04-25 13:10:00,66.4,47.2,30.10,SSE,168,0.0,5.0,50,0.00,,CLR,0.00,960.00,VWS V14.01,2013-04-25 17:10:00,
2013-04-25 13:15:00,66.3,44.3,30.10,ENE,57,0.0,5.0,45,0.00,,CLR,0.00,963.00,VWS V14.01,2013-04-25 17:15:00,
2013-04-25 13:20:00,66.6,45.8,30.10,WSW,237,2.0,5.0,47,0.00,,CLR,0.00,963.00,VWS V14.01,2013-04-25 17:20:00,
2013-04-25 13:25:00,66.4,43.2,30.10,WNW,284,0.0,5.0,43,0.00,,CLR,0.00,963.00,VWS V14.01,2013-04-25 17:25:00,
2013-04-25 13:30:00,66.4,43.2,30.10,West,263,0.0,5.0,43,0.00,,CLR,0.00,965.00,VWS V14.01,2013-04-25 17:30:00,
2013-04-25 13:35:00,66.8,45.4,30.10,SE,146,3.0,4.0,46,0.00,,CLR,0.00,958.00,VWS V14.01,2013-04-25 17:35:00,
2013-04-25 13:40:00,67.4,45.3,30.10,SE,136,1.0,6.0,45,0.00,,CLR,0.00,962.00,VWS V14.01,2013-04-25 17:40:00,
2013-04-25 13:45:00,67.9,45.2,30.09,SSW,206,0.0,6.0,44,0.00,,CLR,0.00,967.00,VWS V14.01,2013-04-25 17:45:00,
2013-04-25 13:50:00,67.6,43.7,30.09,West,269,1.0,6.0,42,0.00,,CLR,0.00,963.00,VWS V14.01,2013-04-25 17:50:00,
2013-04-25 13:55:00,67.3,45.2,30.09,West,269,0.0,6.0,45,0.00,,CLR,0.00,963.00,VWS V14.01,2013-04-25 17:55:00,
2013-04-25 14:00:00,67.4,43.5,30.09,West,263,3.0,6.0,42,0.00,,CLR,0.00,960.00,VWS V14.01,2013-04-25 18:00:00,
2013-04-25 14:05:00,67.4,44.2,30.09,West,278,1.0,8.0,43,0.00,,CLR,0.00,958.00,VWS V14.01,2013-04-25 18:05:00,
2013-04-25 14:10:00,67.6,41.8,30.09,WSW,257,1.0,8.0,39,0.00,,CLR,0.00,954.00,VWS V14.01,2013-04-25 18:10:00,
2013-04-25 14:15:00,67.8,41.3,30.09,WNW,299,4.0,8.0,38,0.00,,CLR,0.00,949.00,VWS V14.01,2013-04-25 18:15:00,
2013-04-25 14:20:00,67.9,40.7,30.09,West,275,3.0,10.0,37,0.00,,CLR,0.00,944.00,VWS V14.01,2013-04-25 18:20:00,
2013-04-25 14:25:00,68.4,39.0,30.09,SW,229,0.0,10.0,34,0.00,,CLR,0.00,940.00,VWS V14.01,2013-04-25 18:25:00,
2013-04-25 14:30:00,68.8,39.3,30.09,West,262,3.0,10.0,34,0.00,,CLR,0.00,932.00,VWS V14.01,2013-04-25 18:30:00,
2013-04-25 14:35:00,68.8,39.3,30.09,West,266,2.0,5.0,34,0.00,,CLR,0.00,923.00,VWS V14.01,2013-04-25 18:35:00,
2013-04-25 14:40:00,68.9,40.9,30.09,West,263,0.0,5.0,36,0.00,,CLR,0.00,923.00,VWS V14.01,2013-04-25 18:40:00,
2013-04-25 14:45:00,68.9,40.2,30.08,West,268,0.0,6.0,35,0.00,,CLR,0.00,914.00,VWS V14.01,2013-04-25 18:45:00,
2013-04-25 14:50:00,69.1,41.0,30.08,West,275,0.0,6.0,36,0.00,,CLR,0.00,907.00,VWS V14.01,2013-04-25 18:50:00,
2013-04-25 14:55:00,69.8,46.3,30.08,WSW,255,1.0,6.0,43,0.00,,CLR,0.00,902.00,VWS V14.01,2013-04-25 18:55:00,
2013-04-25 15:00:00,70.1,43.3,30.08,SE,136,4.0,7.0,38,0.00,,CLR,0.00,893.00,VWS V14.01,2013-04-25 19:00:00,
2013-04-25 15:05:00,70.6,43.1,30.08,West,267,1.0,1.0,37,0.00,,CLR,0.00,888.00,VWS V14.01,2013-04-25 19:05:00,
2013-04-25 15:10:00,71.1,44.9,30.08,SE,144,1.0,4.0,39,0.00,,CLR,0.00,884.00,VWS V14.01,2013-04-25 19:10:00,
2013-04-25 15:15:00,71.5,42.4,30.07,SE,144,0.0,4.0,35,0.00,,CLR,0.00,875.00,VWS V14.01,2013-04-25 19:15:00,
2013-04-25 15:20:00,71.6,42.5,30.07,SE,145,3.0,4.0,35,0.00,,CLR,0.00,865.00,VWS V14.01,2013-04-25 19:20:00,
2013-04-25 15:25:00,71.8,41.2,30.07,SE,146,0.0,4.0,33,0.00,,CLR,0.00,860.00,VWS V14.01,2013-04-25 19:25:00,
2013-04-25 15:30:00,71.5,43.9,30.07,ESE,123,0.0,6.0,37,0.00,,CLR,0.00,854.00,VWS V14.01,2013-04-25 19:30:00,
2013-04-25 15:35:00,71.6,43.3,30.07,ESE,119,1.0,6.0,36,0.00,,CLR,0.00,838.00,VWS V14.01,2013-04-25 19:35:00,
2013-04-25 15:40:00,71.5,42.4,30.07,ESE,121,0.0,6.0,35,0.00,,CLR,0.00,824.00,VWS V14.01,2013-04-25 19:40:00,
2013-04-25 15:45:00,71.5,44.6,30.06,ESE,119,2.0,6.0,38,0.00,,CLR,0.00,814.00,VWS V14.01,2013-04-25 19:45:00,
2013-04-25 15:50:00,71.8,44.2,30.06,WSW,257,1.0,8.0,37,0.00,,CLR,0.00,805.00,VWS V14.01,2013-04-25 19:50:00,
2013-04-25 15:55:00,72.5,41.8,30.06,SE,142,0.0,8.0,33,0.00,,CLR,0.00,791.00,VWS V14.01,2013-04-25 19:55:00,
2013-04-25 16:00:00,72.7,43.5,30.05,SE,127,1.0,8.0,35,0.00,,CLR,0.00,775.00,VWS V14.01,2013-04-25 20:00:00,
2013-04-25 16:05:00,73.0,43.0,30.05,SE,133,2.0,4.0,34,0.00,,CLR,0.00,766.00,VWS V14.01,2013-04-25 20:05:00,
2013-04-25 16:10:00,73.3,41.7,30.05,SE,135,0.0,6.0,32,0.00,,CLR,0.00,754.00,VWS V14.01,2013-04-25 20:10:00,
2013-04-25 16:15:00,73.2,43.2,30.05,SE,135,0.0,6.0,34,0.00,,CLR,0.00,742.00,VWS V14.01,2013-04-25 20:15:00,
2013-04-25 16:19:00,73.2,44.7,30.05,SE,132,2.0,6.0,36,0.00,,CLR,0.00,729.00,VWS V14.01,2013-04-25 20:19:00,
2013-04-25 16:24:00,73.2,43.9,30.05,SE,146,1.0,6.0,35,0.00,,CLR,0.00,715.00,VWS V14.01,2013-04-25 20:24:00,
2013-04-25 16:29:00,73.5,42.7,30.04,SE,133,0.0,6.0,33,0.00,,CLR,0.00,705.00,VWS V14.01,2013-04-25 20:29:00,
2013-04-25 16:30:00,71.5,43.9,30.07,ESE,113,0.0,6.0,37,0.00,,CLR,0.00,847.00,VWS V14.01,2013-04-25 20:30:00,
2013-04-25 16:34:00,74.0,42.3,30.04,SSE,154,2.0,3.0,32,0.00,,CLR,0.00,689.00,VWS V14.01,2013-04-25 20:34:00,
2013-04-25 16:39:00,74.2,40.8,30.04,SSW,197,0.0,5.0,30,0.00,,CLR,0.00,675.00,VWS V14.01,2013-04-25 20:39:00,
2013-04-25 16:44:00,74.2,41.7,30.04,SE,132,0.0,5.0,31,0.00,,CLR,0.00,661.00,VWS V14.01,2013-04-25 20:44:00,
2013-04-25 16:49:00,74.0,41.5,30.04,SE,132,0.0,6.0,31,0.00,,CLR,0.00,650.00,VWS V14.01,2013-04-25 20:49:00,
2013-04-25 16:54:00,73.9,40.5,30.04,SE,129,0.0,6.0,30,0.00,,CLR,0.00,636.00,VWS V14.01,2013-04-25 20:54:00,
2013-04-25 16:59:00,74.0,42.3,30.04,SSE,163,0.0,6.0,32,0.00,,CLR,0.00,621.00,VWS V14.01,2013-04-25 20:59:00,
2013-04-25 17:00:00,72.7,45.0,30.05,SE,124,1.0,8.0,37,0.00,,CLR,0.00,773.00,VWS V14.01,2013-04-25 21:00:00,
2013-04-25 17:04:00,74.4,42.7,30.04,SE,141,1.0,4.0,32,0.00,,CLR,0.00,606.00,VWS V14.01,2013-04-25 21:04:00,
2013-04-25 17:09:00,74.0,38.9,30.04,SE,140,0.0,5.0,28,0.00,,CLR,0.00,587.00,VWS V14.01,2013-04-25 21:09:00,
2013-04-25 17:14:00,74.4,41.0,30.04,SE,125,0.0,5.0,30,0.00,,CLR,0.00,571.00,VWS V14.01,2013-04-25 21:14:00,
2013-04-25 17:19:00,74.7,41.2,30.04,SE,136,2.0,5.0,30,0.00,,CLR,0.00,559.00,VWS V14.01,2013-04-25 21:19:00,
2013-04-25 17:24:00,74.7,40.4,30.04,SW,229,0.0,5.0,29,0.00,,CLR,0.00,543.00,VWS V14.01,2013-04-25 21:24:00,
2013-04-25 17:29:00,74.6,40.3,30.03,ESE,118,2.0,5.0,29,0.00,,CLR,0.00,524.00,VWS V14.01,2013-04-25 21:29:00,
2013-04-25 17:30:00,73.7,42.0,30.04,SE,134,0.0,6.0,32,0.00,,CLR,0.00,703.00,VWS V14.01,2013-04-25 21:30:00,
2013-04-25 17:34:00,74.7,39.5,30.03,SSE,167,0.0,5.0,28,0.00,,CLR,0.00,510.00,VWS V14.01,2013-04-25 21:34:00,
2013-04-25 17:39:00,74.9,39.6,30.03,SSE,151,1.0,5.0,28,0.00,,CLR,0.00,489.00,VWS V14.01,2013-04-25 21:39:00,
2013-04-25 17:44:00,75.3,40.0,30.03,SE,141,0.0,5.0,28,0.00,,CLR,0.00,475.00,VWS V14.01,2013-04-25 21:44:00,
2013-04-25 17:49:00,75.3,39.0,30.03,SE,138,1.0,5.0,27,0.00,,CLR,0.00,455.00,VWS V14.01,2013-04-25 21:49:00,
2013-04-25 17:54:00,75.1,38.9,30.03,SE,136,0.0,5.0,27,0.00,,CLR,0.00,439.00,VWS V14.01,2013-04-25 21:54:00,
2013-04-25 17:59:00,75.3,39.0,30.04,SSE,148,2.0,5.0,27,0.00,,CLR,0.00,424.00,VWS V14.01,2013-04-25 21:59:00,
2013-04-25 18:00:00,74.2,42.5,30.04,SE,146,2.0,6.0,32,0.00,,CLR,0.00,621.00,VWS V14.01,2013-04-25 22:00:00,
2013-04-25 18:04:00,75.1,39.8,30.04,SE,127,0.0,5.0,28,0.00,,CLR,0.00,406.00,VWS V14.01,2013-04-25 22:04:00,
2013-04-25 18:09:00,75.1,39.8,30.04,SE,136,0.0,5.0,28,0.00,,CLR,0.00,387.00,VWS V14.01,2013-04-25 22:09:00,
2013-04-25 18:14:00,75.3,40.0,30.04,ESE,122,0.0,5.0,28,0.00,,CLR,0.00,369.00,VWS V14.01,2013-04-25 22:14:00,
2013-04-25 18:19:00,75.3,38.1,30.04,SE,127,0.0,5.0,26,0.00,,CLR,0.00,352.00,VWS V14.01,2013-04-25 22:19:00,
2013-04-25 18:24:00,75.1,39.8,30.04,SE,134,0.0,5.0,28,0.00,,CLR,0.00,338.00,VWS V14.01,2013-04-25 22:24:00,
2013-04-25 18:29:00,74.9,39.6,30.04,SE,134,0.0,5.0,28,0.00,,CLR,0.00,320.00,VWS V14.01,2013-04-25 22:29:00,
2013-04-25 18:30:00,74.6,39.4,30.03,SE,132,4.0,5.0,28,0.00,,CLR,0.00,524.00,VWS V14.01,2013-04-25 22:30:00,
2013-04-25 18:34:00,74.9,40.5,30.04,SE,139,1.0,4.0,29,0.00,,CLR,0.00,301.00,VWS V14.01,2013-04-25 22:34:00,
2013-04-25 18:39:00,74.7,40.4,30.04,SE,132,1.0,4.0,29,0.00,,CLR,0.00,285.00,VWS V14.01,2013-04-25 22:39:00,
2013-04-25 18:44:00,74.6,38.5,30.04,SSE,149,0.0,5.0,27,0.00,,CLR,0.00,267.00,VWS V14.01,2013-04-25 22:44:00,
2013-04-25 18:49:00,74.6,38.5,30.05,SSE,147,0.0,5.0,27,0.00,,CLR,0.00,251.00,VWS V14.01,2013-04-25 22:49:00,
2013-04-25 18:54:00,74.9,38.7,30.05,SE,140,0.0,5.0,27,0.00,,CLR,0.00,236.00,VWS V14.01,2013-04-25 22:54:00,
2013-04-25 18:59:00,74.9,39.6,30.05,SE,130,0.0,5.0,28,0.00,,CLR,0.00,216.00,VWS V14.01,2013-04-25 22:59:00,
2013-04-25 19:00:00,75.3,39.0,30.04,SE,142,0.0,5.0,27,0.00,,CLR,0.00,420.00,VWS V14.01,2013-04-25 23:00:00,
2013-04-25 19:04:00,74.6,46.6,30.05,SE,132,0.0,4.0,37,0.00,,CLR,0.00,197.00,VWS V14.01,2013-04-25 23:04:00,
2013-04-25 19:09:00,73.9,40.5,30.05,SE,138,0.0,6.0,30,0.00,,CLR,0.00,179.00,VWS V14.01,2013-04-25 23:09:00,
2013-04-25 19:14:00,73.5,43.4,30.05,SE,138,0.0,6.0,34,0.00,,CLR,0.00,162.00,VWS V14.01,2013-04-25 23:14:00,
2013-04-25 19:19:00,73.3,44.0,30.05,SE,132,0.0,6.0,35,0.00,,CLR,0.00,146.00,VWS V14.01,2013-04-25 23:19:00,
2013-04-25 19:24:00,73.0,45.2,30.05,SE,130,0.0,6.0,37,0.00,,CLR,0.00,127.00,VWS V14.01,2013-04-25 23:24:00,
2013-04-25 19:29:00,72.7,43.5,30.05,SE,126,2.0,6.0,35,0.00,,CLR,0.00,113.00,VWS V14.01,2013-04-25 23:29:00,
2013-04-25 19:30:00,74.9,37.7,30.04,SSW,198,0.0,5.0,26,0.00,,CLR,0.00,316.00,VWS V14.01,2013-04-25 23:30:00,
2013-04-25 19:34:00,72.3,44.6,30.05,ESE,114,1.0,5.0,37,0.00,,CLR,0.00,97.00,VWS V14.01,2013-04-25 23:34:00,
2013-04-25 19:39:00,72.1,44.4,30.05,ESE,111,0.0,5.0,37,0.00,,CLR,0.00,76.00,VWS V14.01,2013-04-25 23:39:00,
2013-04-25 19:44:00,72.1,44.4,30.05,ESE,111,0.0,5.0,37,0.00,,CLR,0.00,62.00,VWS V14.01,2013-04-25 23:44:00,
2013-04-25 19:49:00,72.1,48.4,30.05,ESE,104,0.0,5.0,43,0.00,,CLR,0.00,25.00,VWS V14.01,2013-04-25 23:49:00,
2013-04-25 19:54:00,71.6,48.6,30.05,ESE,104,0.0,5.0,44,0.00,,CLR,0.00,19.00,VWS V14.01,2013-04-25 23:54:00,
2013-04-25 19:59:00,71.3,45.8,30.05,East,93,1.0,5.0,40,0.00,,CLR,0.00,16.00,VWS V14.01,2013-04-25 23:59:00,
2013-04-25 20:00:00,74.9,42.3,30.05,SE,132,1.0,5.0,31,0.00,,CLR,0.00,209.00,VWS V14.01,2013-04-26 00:00:00,
2013-04-25 20:04:00,71.1,49.9,30.06,East,88,3.0,3.0,47,0.00,,CLR,0.00,12.00,VWS V14.01,2013-04-26 00:04:00,
2013-04-25 20:09:00,69.6,46.1,30.06,WNW,289,3.0,6.0,43,0.00,,CLR,0.00,7.00,VWS V14.01,2013-04-26 00:09:00,
2013-04-25 20:14:00,68.6,45.8,30.06,West,266,0.0,6.0,44,0.00,,CLR,0.00,0.00,VWS V14.01,2013-04-26 00:14:00,
2013-04-25 20:19:00,68.4,46.2,30.07,West,266,0.0,6.0,45,0.00,,CLR,0.00,0.00,VWS V14.01,2013-04-26 00:19:00,
2013-04-25 20:24:00,68.8,40.1,30.07,West,275,0.0,10.0,35,0.00,,CLR,0.00,0.00,VWS V14.01,2013-04-26 00:24:00,
2013-04-25 20:29:00,69.4,34.0,30.07,West,261,2.0,10.0,27,0.00,,CLR,0.00,0.00,VWS V14.01,2013-04-26 00:29:00,
2013-04-25 20:30:00,72.7,45.7,30.05,East,93,5.0,6.0,38,0.00,,CLR,0.00,107.00,VWS V14.01,2013-04-26 00:30:00,
2013-04-25 20:34:00,69.3,34.8,30.07,West,279,5.0,6.0,28,0.00,,CLR,0.00,0.00,VWS V14.01,2013-04-26 00:34:00,
2013-04-25 20:39:00,68.9,33.6,30.07,West,262,2.0,7.0,27,0.00,,CLR,0.00,0.00,VWS V14.01,2013-04-26 00:39:00,
2013-04-25 20:44:00,68.6,31.4,30.07,West,279,4.0,12.0,25,0.00,,CLR,0.00,0.00,VWS V14.01,2013-04-26 00:44:00,
2013-04-25 20:49:00,68.3,29.1,30.07,West,277,5.0,12.0,23,0.00,,CLR,0.00,0.00,VWS V14.01,2013-04-26 00:49:00,
2013-04-25 20:54:00,68.1,32.0,30.07,West,273,4.0,12.0,26,0.00,,CLR,0.00,0.00,VWS V14.01,2013-04-26 00:54:00,
2013-04-25 20:59:00,67.8,27.6,30.07,West,262,6.0,12.0,22,0.00,,CLR,0.00,0.00,VWS V14.01,2013-04-26 00:59:00,
2013-04-25 21:00:00,71.3,46.4,30.06,ESE,103,2.0,5.0,41,0.00,,CLR,0.00,16.00,VWS V14.01,2013-04-26 01:00:00,
2013-04-25 21:04:00,67.8,28.7,30.08,West,263,2.0,6.0,23,0.00,,CLR,0.00,0.00,VWS V14.01,2013-04-26 01:04:00,
2013-04-25 21:09:00,67.6,32.5,30.08,WNW,291,2.0,7.0,27,0.00,,CLR,0.00,0.00,VWS V14.01,2013-04-26 01:09:00,
2013-04-25 21:14:00,67.1,32.9,30.08,NNW,339,4.0,7.0,28,0.00,,CLR,0.00,0.00,VWS V14.01,2013-04-26 01:14:00,
2013-04-25 21:19:00,66.6,29.7,30.09,NW,306,3.0,7.0,25,0.00,,CLR,0.00,0.00,VWS V14.01,2013-04-26 01:19:00,
2013-04-25 21:24:00,65.6,32.5,30.09,NW,305,1.0,7.0,29,0.00,,CLR,0.00,0.00,VWS V14.01,2013-04-26 01:24:00,
2013-04-25 21:29:00,64.8,31.8,30.09,WNW,303,1.0,7.0,29,0.00,,CLR,0.00,0.00,VWS V14.01,2013-04-26 01:29:00,
2013-04-25 21:30:00,69.4,36.7,30.07,West,265,2.0,10.0,30,0.00,,CLR,0.00,0.00,VWS V14.01,2013-04-26 01:30:00,
2013-04-25 21:34:00,64.7,32.6,30.10,NW,307,0.0,4.0,30,0.00,,CLR,0.00,0.00,VWS V14.01,2013-04-26 01:34:00,
2013-04-25 21:39:00,64.5,37.7,30.10,WNW,298,0.0,5.0,37,0.00,,CLR,0.00,0.00,VWS V14.01,2013-04-26 01:39:00,
2013-04-25 21:44:00,64.2,36.7,30.10,WNW,290,2.0,5.0,36,0.00,,CLR,0.00,0.00,VWS V14.01,2013-04-26 01:44:00,
2013-04-25 21:49:00,63.7,42.5,30.11,WNW,296,3.0,5.0,46,0.00,,CLR,0.00,0.00,VWS V14.01,2013-04-26 01:49:00,
2013-04-25 21:54:00,63.2,42.7,30.11,WNW,296,4.0,5.0,47,0.00,,CLR,0.00,0.00,VWS V14.01,2013-04-26 01:54:00,
2013-04-25 21:59:00,63.1,44.2,30.11,West,278,0.0,5.0,50,0.00,,CLR,0.00,0.00,VWS V14.01,2013-04-26 01:59:00,
2013-04-25 22:00:00,67.8,28.7,30.08,West,260,1.0,12.0,23,0.00,,CLR,0.00,0.00,VWS V14.01,2013-04-26 02:00:00,
2013-04-25 22:04:00,62.7,42.2,30.12,West,275,0.0,4.0,47,0.00,,CLR,0.00,0.00,VWS V14.01,2013-04-26 02:04:00,
2013-04-25 22:09:00,62.6,41.5,30.12,West,278,3.0,4.0,46,0.00,,CLR,0.00,0.00,VWS V14.01,2013-04-26 02:09:00,
2013-04-25 22:14:00,62.1,38.8,30.12,NNW,348,2.0,5.0,42,0.00,,CLR,0.00,0.00,VWS V14.01,2013-04-26 02:14:00,
2013-04-25 22:19:00,62.3,38.3,30.13,NW,321,0.0,5.0,41,0.00,,CLR,0.00,0.00,VWS V14.01,2013-04-26 02:19:00,
2013-04-25 22:24:00,62.6,37.3,30.13,NW,311,4.0,5.0,39,0.00,,CLR,0.00,0.00,VWS V14.01,2013-04-26 02:24:00,
2013-04-25 22:29:00,62.7,36.1,30.13,NW,313,1.0,5.0,37,0.00,,CLR,0.00,0.00,VWS V14.01,2013-04-26 02:29:00,
2013-04-25 22:30:00,64.7,31.7,30.10,WNW,301,0.0,7.0,29,0.00,,CLR,0.00,0.00,VWS V14.01,2013-04-26 02:30:00,
2013-04-25 22:34:00,62.6,35.3,30.13,NW,326,1.0,3.0,36,0.00,,CLR,0.00,0.00,VWS V14.01,2013-04-26 02:34:00,
2013-04-25 22:39:00,62.3,40.7,30.13,WNW,285,2.0,6.0,45,0.00,,CLR,0.00,0.00,VWS V14.01,2013-04-26 02:39:00,
2013-04-25 22:44:00,61.8,40.3,30.13,WNW,302,4.0,6.0,45,0.00,,CLR,0.00,0.00,VWS V14.01,2013-04-26 02:44:00,
2013-04-25 22:49:00,62.0,39.3,30.14,NW,304,4.0,6.0,43,0.00,,CLR,0.00,0.00,VWS V14.01,2013-04-26 02:49:00,
2013-04-25 22:54:00,61.8,40.8,30.14,WNW,284,3.0,6.0,46,0.00,,CLR,0.00,0.00,VWS V14.01,2013-04-26 02:54:00,
2013-04-25 22:59:00,61.6,38.9,30.14,WNW,294,4.0,6.0,43,0.00,,CLR,0.00,0.00,VWS V14.01,2013-04-26 02:59:00,
2013-04-25 23:00:00,63.1,40.9,30.12,West,276,0.0,5.0,44,0.00,,CLR,0.00,0.00,VWS V14.01,2013-04-26 03:00:00,
2013-04-25 23:04:00,61.5,41.1,30.14,WNW,287,4.0,4.0,47,0.00,,CLR,0.00,0.00,VWS V14.01,2013-04-26 03:04:00,
2013-04-25 23:09:00,61.3,35.5,30.14,West,278,0.0,7.0,38,0.00,,CLR,0.00,0.00,VWS V14.01,2013-04-26 03:09:00,
2013-04-25 23:14:00,61.2,40.3,30.14,WNW,300,6.0,7.0,46,0.00,,CLR,0.00,0.00,VWS V14.01,2013-04-26 03:14:00,
2013-04-25 23:19:00,61.0,37.2,30.14,West,281,3.0,7.0,41,0.00,,CLR,0.00,0.00,VWS V14.01,2013-04-26 03:19:00,
2013-04-25 23:24:00,60.9,39.4,30.14,WNW,284,0.0,7.0,45,0.00,,CLR,0.00,0.00,VWS V14.01,2013-04-26 03:24:00,
2013-04-25 23:29:00,60.2,39.4,30.14,West,281,0.0,7.0,46,0.00,,CLR,0.00,0.00,VWS V14.01,2013-04-26 03:29:00,
2013-04-25 23:30:00,62.7,38.7,30.13,West,281,0.0,5.0,41,0.00,,CLR,0.00,0.00,VWS V14.01,2013-04-26 03:30:00,
2013-04-25 23:34:00,59.9,36.8,30.15,West,265,1.0,5.0,42,0.00,,CLR,0.00,0.00,VWS V14.01,2013-04-26 03:34:00,
2013-04-25 23:39:00,59.9,39.1,30.15,West,278,0.0,6.0,46,0.00,,CLR,0.00,0.00,VWS V14.01,2013-04-26 03:39:00,
2013-04-25 23:44:00,59.9,38.5,30.15,WNW,300,1.0,6.0,45,0.00,,CLR,0.00,0.00,VWS V14.01,2013-04-26 03:44:00,
2013-04-25 23:49:00,59.8,36.1,30.15,WNW,282,1.0,6.0,41,0.00,,CLR,0.00,0.00,VWS V14.01,2013-04-26 03:49:00,
2013-04-25 23:54:00,59.3,39.6,30.15,WNW,282,3.0,6.0,48,0.00,,CLR,0.00,0.00,VWS V14.01,2013-04-26 03:54:00,
2013-04-25 23:59:00,58.7,38.0,30.15,West,277,0.0,6.0,46,0.00,,CLR,0.00,0.00,VWS V14.01,2013-04-26 03:59:00,